sensor_id;sensor_type;location;lat;lon;timestamp;P1;durP1;ratioP1;P2;durP2;ratioP2
36243;SDS011;22284;49.956;19.816;2023-02-01T00:10:12;8.20;;;3.80;;
36243;SDS011;22284;49.956;19.816;2023-02-01T00:21:00;4.90;;;3.40;;
36243;SDS011;22284;49.956;19.816;2023-02-01T00:31:30;7.20;;;3.70;;
36243;SDS011;22284;49.956;19.816;2023-02-01T00:34:55;7.30;;;3.60;;
36243;SDS011;22284;49.956;19.816;2023-02-01T00:42:04;5.40;;;3.30;;
36243;SDS011;22284;49.956;19.816;2023-02-01T00:45:46;6.50;;;3.30;;
36243;SDS011;22284;49.956;19.816;2023-02-01T00:49:01;6.10;;;3.40;;
36243;SDS011;22284;49.956;19.816;2023-02-01T01:03:10;6.80;;;3.40;;
36243;SDS011;22284;49.956;19.816;2023-02-01T01:06:38;8.40;;;3.40;;
36243;SDS011;22284;49.956;19.816;2023-02-01T01:13:18;4.80;;;3.40;;
36243;SDS011;22284;49.956;19.816;2023-02-01T01:27:53;9.50;;;3.80;;
36243;SDS011;22284;49.956;19.816;2023-02-01T01:31:19;5.50;;;3.40;;
36243;SDS011;22284;49.956;19.816;2023-02-01T01:34:58;4.40;;;3.00;;
36243;SDS011;22284;49.956;19.816;2023-02-01T01:38:28;5.90;;;3.00;;
36243;SDS011;22284;49.956;19.816;2023-02-01T01:42:04;4.90;;;3.10;;
36243;SDS011;22284;49.956;19.816;2023-02-01T01:45:42;4.80;;;2.80;;
36243;SDS011;22284;49.956;19.816;2023-02-01T04:26:23;3.90;;;2.10;;
36243;SDS011;22284;49.956;19.816;2023-02-01T04:29:25;5.80;;;3.00;;
36243;SDS011;22284;49.956;19.816;2023-02-01T04:32:29;8.30;;;2.60;;
36243;SDS011;22284;49.956;19.816;2023-02-01T04:35:31;6.70;;;2.10;;
36243;SDS011;22284;49.956;19.816;2023-02-01T04:38:42;6.90;;;2.30;;
36243;SDS011;22284;49.956;19.816;2023-02-01T04:41:43;3.60;;;2.10;;
36243;SDS011;22284;49.956;19.816;2023-02-01T04:44:47;4.60;;;2.50;;
36243;SDS011;22284;49.956;19.816;2023-02-01T04:48:03;4.80;;;2.50;;
36243;SDS011;22284;49.956;19.816;2023-02-01T04:51:05;3.10;;;1.90;;
36243;SDS011;22284;49.956;19.816;2023-02-01T04:54:08;7.00;;;2.40;;
36243;SDS011;22284;49.956;19.816;2023-02-01T04:57:12;5.80;;;2.50;;
36243;SDS011;22284;49.956;19.816;2023-02-01T05:00:15;6.00;;;2.70;;
36243;SDS011;22284;49.956;19.816;2023-02-01T05:03:18;3.00;;;2.30;;
36243;SDS011;22284;49.956;19.816;2023-02-01T05:06:22;4.10;;;2.20;;
36243;SDS011;22284;49.956;19.816;2023-02-01T05:09:24;3.90;;;2.40;;
36243;SDS011;22284;49.956;19.816;2023-02-01T05:12:26;3.90;;;2.10;;
36243;SDS011;22284;49.956;19.816;2023-02-01T05:15:46;4.20;;;2.10;;
36243;SDS011;22284;49.956;19.816;2023-02-01T05:18:48;4.30;;;2.40;;
36243;SDS011;22284;49.956;19.816;2023-02-01T05:33:13;7.20;;;3.30;;
36243;SDS011;22284;49.956;19.816;2023-02-01T05:36:17;4.70;;;2.80;;
36243;SDS011;22284;49.956;19.816;2023-02-01T05:39:19;11.30;;;3.60;;
36243;SDS011;22284;49.956;19.816;2023-02-01T05:42:21;8.70;;;3.00;;
36243;SDS011;22284;49.956;19.816;2023-02-01T05:45:22;8.90;;;3.10;;
36243;SDS011;22284;49.956;19.816;2023-02-01T05:48:24;8.50;;;3.30;;
36243;SDS011;22284;49.956;19.816;2023-02-01T05:51:26;9.00;;;3.00;;
36243;SDS011;22284;49.956;19.816;2023-02-01T05:54:28;6.00;;;2.90;;
36243;SDS011;22284;49.956;19.816;2023-02-01T05:57:30;9.90;;;3.00;;
36243;SDS011;22284;49.956;19.816;2023-02-01T06:00:34;15.10;;;3.50;;
36243;SDS011;22284;49.956;19.816;2023-02-01T06:03:36;7.20;;;3.50;;
36243;SDS011;22284;49.956;19.816;2023-02-01T06:06:46;9.00;;;3.10;;
36243;SDS011;22284;49.956;19.816;2023-02-01T06:09:57;8.40;;;2.80;;
36243;SDS011;22284;49.956;19.816;2023-02-01T06:13:19;10.80;;;3.20;;
36243;SDS011;22284;49.956;19.816;2023-02-01T06:19:56;9.70;;;2.70;;
36243;SDS011;22284;49.956;19.816;2023-02-01T06:23:10;7.50;;;2.90;;
36243;SDS011;22284;49.956;19.816;2023-02-01T06:26:24;12.90;;;3.20;;
36243;SDS011;22284;49.956;19.816;2023-02-01T06:29:35;7.10;;;2.70;;
36243;SDS011;22284;49.956;19.816;2023-02-01T06:32:40;6.70;;;3.00;;
36243;SDS011;22284;49.956;19.816;2023-02-01T06:35:50;8.50;;;2.70;;
36243;SDS011;22284;49.956;19.816;2023-02-01T06:38:57;11.70;;;3.30;;
36243;SDS011;22284;49.956;19.816;2023-02-01T06:42:20;8.80;;;3.00;;
36243;SDS011;22284;49.956;19.816;2023-02-01T06:45:24;8.70;;;2.90;;
36243;SDS011;22284;49.956;19.816;2023-02-01T06:48:32;12.20;;;3.00;;
36243;SDS011;22284;49.956;19.816;2023-02-01T06:51:36;10.60;;;3.20;;
36243;SDS011;22284;49.956;19.816;2023-02-01T06:54:44;9.30;;;3.10;;
36243;SDS011;22284;49.956;19.816;2023-02-01T06:57:56;9.40;;;3.20;;
36243;SDS011;22284;49.956;19.816;2023-02-01T07:01:04;12.50;;;3.40;;
36243;SDS011;22284;49.956;19.816;2023-02-01T07:04:10;12.80;;;3.30;;
36243;SDS011;22284;49.956;19.816;2023-02-01T07:07:13;13.40;;;3.40;;
36243;SDS011;22284;49.956;19.816;2023-02-01T07:10:18;10.90;;;3.50;;
36243;SDS011;22284;49.956;19.816;2023-02-01T07:13:29;10.70;;;3.30;;
36243;SDS011;22284;49.956;19.816;2023-02-01T07:16:31;9.20;;;3.20;;
36243;SDS011;22284;49.956;19.816;2023-02-01T07:19:36;9.90;;;3.60;;
36243;SDS011;22284;49.956;19.816;2023-02-01T07:26:02;12.30;;;3.90;;
36243;SDS011;22284;49.956;19.816;2023-02-01T07:29:06;11.90;;;3.60;;
36243;SDS011;22284;49.956;19.816;2023-02-01T07:32:10;12.70;;;3.80;;
36243;SDS011;22284;49.956;19.816;2023-02-01T07:38:23;12.60;;;3.30;;
36243;SDS011;22284;49.956;19.816;2023-02-01T07:41:30;10.70;;;3.50;;
36243;SDS011;22284;49.956;19.816;2023-02-01T07:44:41;7.90;;;3.10;;
36243;SDS011;22284;49.956;19.816;2023-02-01T07:48:14;8.20;;;3.10;;
36243;SDS011;22284;49.956;19.816;2023-02-01T07:51:19;12.30;;;3.30;;
36243;SDS011;22284;49.956;19.816;2023-02-01T07:54:52;12.00;;;4.10;;
36243;SDS011;22284;49.956;19.816;2023-02-01T07:58:02;15.20;;;4.30;;
36243;SDS011;22284;49.956;19.816;2023-02-01T08:01:04;7.10;;;3.10;;
36243;SDS011;22284;49.956;19.816;2023-02-01T08:04:22;7.30;;;2.90;;
36243;SDS011;22284;49.956;19.816;2023-02-01T08:07:41;5.30;;;2.70;;
36243;SDS011;22284;49.956;19.816;2023-02-01T08:14:10;7.70;;;2.90;;
36243;SDS011;22284;49.956;19.816;2023-02-01T08:17:26;10.20;;;2.70;;
36243;SDS011;22284;49.956;19.816;2023-02-01T08:20:45;8.30;;;3.00;;
36243;SDS011;22284;49.956;19.816;2023-02-01T08:23:49;9.10;;;3.30;;
36243;SDS011;22284;49.956;19.816;2023-02-01T08:26:51;9.10;;;3.50;;
36243;SDS011;22284;49.956;19.816;2023-02-01T08:30:03;8.50;;;3.30;;
36243;SDS011;22284;49.956;19.816;2023-02-01T08:33:08;9.80;;;3.30;;
36243;SDS011;22284;49.956;19.816;2023-02-01T08:36:13;7.20;;;2.70;;
36243;SDS011;22284;49.956;19.816;2023-02-01T08:39:14;11.20;;;3.20;;
36243;SDS011;22284;49.956;19.816;2023-02-01T08:42:49;11.20;;;3.10;;
36243;SDS011;22284;49.956;19.816;2023-02-01T08:46:12;9.80;;;3.20;;
36243;SDS011;22284;49.956;19.816;2023-02-01T08:52:32;8.60;;;2.60;;
36243;SDS011;22284;49.956;19.816;2023-02-01T08:55:36;10.70;;;3.20;;
36243;SDS011;22284;49.956;19.816;2023-02-01T08:58:52;7.40;;;2.80;;
36243;SDS011;22284;49.956;19.816;2023-02-01T09:02:07;10.10;;;3.60;;
36243;SDS011;22284;49.956;19.816;2023-02-01T09:05:11;8.50;;;3.20;;
36243;SDS011;22284;49.956;19.816;2023-02-01T09:08:26;9.90;;;3.60;;
36243;SDS011;22284;49.956;19.816;2023-02-01T09:11:28;6.50;;;3.00;;
36243;SDS011;22284;49.956;19.816;2023-02-01T09:14:38;11.90;;;3.30;;
36243;SDS011;22284;49.956;19.816;2023-02-01T09:17:49;7.20;;;3.20;;
36243;SDS011;22284;49.956;19.816;2023-02-01T09:21:14;6.90;;;3.00;;
36243;SDS011;22284;49.956;19.816;2023-02-01T09:24:15;9.30;;;3.20;;
36243;SDS011;22284;49.956;19.816;2023-02-01T09:27:26;12.00;;;3.00;;
36243;SDS011;22284;49.956;19.816;2023-02-01T09:33:52;12.90;;;3.50;;
36243;SDS011;22284;49.956;19.816;2023-02-01T09:36:53;10.60;;;3.10;;
36243;SDS011;22284;49.956;19.816;2023-02-01T09:39:55;12.50;;;3.30;;
36243;SDS011;22284;49.956;19.816;2023-02-01T09:49:36;10.60;;;3.50;;
36243;SDS011;22284;49.956;19.816;2023-02-01T09:52:44;10.30;;;3.80;;
36243;SDS011;22284;49.956;19.816;2023-02-01T09:55:52;12.20;;;3.80;;
36243;SDS011;22284;49.956;19.816;2023-02-01T10:02:19;12.90;;;3.40;;
36243;SDS011;22284;49.956;19.816;2023-02-01T10:05:35;9.10;;;3.30;;
36243;SDS011;22284;49.956;19.816;2023-02-01T10:21:00;7.30;;;3.30;;
36243;SDS011;22284;49.956;19.816;2023-02-01T10:24:45;13.50;;;3.30;;
36243;SDS011;22284;49.956;19.816;2023-02-01T10:31:26;9.80;;;3.90;;
36243;SDS011;22284;49.956;19.816;2023-02-01T10:34:35;12.40;;;3.70;;
36243;SDS011;22284;49.956;19.816;2023-02-01T10:37:43;10.70;;;4.20;;
36243;SDS011;22284;49.956;19.816;2023-02-01T10:40:56;13.30;;;4.60;;
36243;SDS011;22284;49.956;19.816;2023-02-01T10:44:29;13.60;;;4.80;;
36243;SDS011;22284;49.956;19.816;2023-02-01T10:47:40;13.00;;;4.70;;
36243;SDS011;22284;49.956;19.816;2023-02-01T10:50:51;14.90;;;4.90;;
36243;SDS011;22284;49.956;19.816;2023-02-01T11:01:29;14.80;;;5.20;;
36243;SDS011;22284;49.956;19.816;2023-02-01T11:04:39;13.90;;;4.80;;
36243;SDS011;22284;49.956;19.816;2023-02-01T11:07:46;11.20;;;4.50;;
36243;SDS011;22284;49.956;19.816;2023-02-01T11:11:02;13.10;;;5.00;;
36243;SDS011;22284;49.956;19.816;2023-02-01T11:17:32;16.40;;;4.70;;
36243;SDS011;22284;49.956;19.816;2023-02-01T11:20:47;15.90;;;4.70;;
36243;SDS011;22284;49.956;19.816;2023-02-01T11:23:53;12.00;;;4.40;;
36243;SDS011;22284;49.956;19.816;2023-02-01T11:27:03;16.30;;;5.00;;
36243;SDS011;22284;49.956;19.816;2023-02-01T11:30:15;14.00;;;4.50;;
36243;SDS011;22284;49.956;19.816;2023-02-01T11:33:47;11.70;;;4.50;;
36243;SDS011;22284;49.956;19.816;2023-02-01T11:37:01;11.70;;;4.80;;
36243;SDS011;22284;49.956;19.816;2023-02-01T11:43:23;12.50;;;4.80;;
36243;SDS011;22284;49.956;19.816;2023-02-01T11:46:55;9.90;;;4.10;;
36243;SDS011;22284;49.956;19.816;2023-02-01T11:50:01;14.60;;;5.50;;
36243;SDS011;22284;49.956;19.816;2023-02-01T12:01:12;17.40;;;4.80;;
36243;SDS011;22284;49.956;19.816;2023-02-01T12:12:08;12.40;;;4.90;;
36243;SDS011;22284;49.956;19.816;2023-02-01T12:15:34;13.60;;;5.50;;
36243;SDS011;22284;49.956;19.816;2023-02-01T12:46:59;12.40;;;5.50;;
36243;SDS011;22284;49.956;19.816;2023-02-01T12:50:39;12.70;;;4.40;;
36243;SDS011;22284;49.956;19.816;2023-02-01T12:53:42;13.30;;;5.30;;
36243;SDS011;22284;49.956;19.816;2023-02-01T12:56:57;15.50;;;5.60;;
36243;SDS011;22284;49.956;19.816;2023-02-01T13:00:27;13.70;;;4.70;;
36243;SDS011;22284;49.956;19.816;2023-02-01T13:07:26;11.20;;;4.10;;
36243;SDS011;22284;49.956;19.816;2023-02-01T13:10:44;12.30;;;4.10;;
36243;SDS011;22284;49.956;19.816;2023-02-01T13:14:19;9.20;;;4.60;;
36243;SDS011;22284;49.956;19.816;2023-02-01T13:17:31;11.10;;;4.40;;
36243;SDS011;22284;49.956;19.816;2023-02-01T13:20:35;13.00;;;4.50;;
36243;SDS011;22284;49.956;19.816;2023-02-01T13:23:50;14.70;;;5.00;;
36243;SDS011;22284;49.956;19.816;2023-02-01T13:26:55;12.90;;;4.60;;
36243;SDS011;22284;49.956;19.816;2023-02-01T13:33:32;17.00;;;5.20;;
36243;SDS011;22284;49.956;19.816;2023-02-01T13:37:09;10.00;;;4.60;;
36243;SDS011;22284;49.956;19.816;2023-02-01T13:43:24;8.50;;;3.80;;
36243;SDS011;22284;49.956;19.816;2023-02-01T13:46:29;8.60;;;4.10;;
36243;SDS011;22284;49.956;19.816;2023-02-01T13:49:33;8.50;;;3.60;;
36243;SDS011;22284;49.956;19.816;2023-02-01T13:52:40;13.40;;;5.10;;
36243;SDS011;22284;49.956;19.816;2023-02-01T13:55:45;11.40;;;4.40;;
36243;SDS011;22284;49.956;19.816;2023-02-01T14:01:53;9.70;;;4.40;;
36243;SDS011;22284;49.956;19.816;2023-02-01T14:04:55;8.70;;;3.60;;
36243;SDS011;22284;49.956;19.816;2023-02-01T14:11:43;9.10;;;3.90;;
36243;SDS011;22284;49.956;19.816;2023-02-01T14:14:52;9.80;;;3.50;;
36243;SDS011;22284;49.956;19.816;2023-02-01T14:21:48;10.90;;;3.40;;
36243;SDS011;22284;49.956;19.816;2023-02-01T14:28:22;6.70;;;3.00;;
36243;SDS011;22284;49.956;19.816;2023-02-01T14:31:34;11.00;;;3.90;;
36243;SDS011;22284;49.956;19.816;2023-02-01T14:37:52;9.80;;;4.10;;
36243;SDS011;22284;49.956;19.816;2023-02-01T14:40:55;6.30;;;3.40;;
36243;SDS011;22284;49.956;19.816;2023-02-01T14:44:34;6.50;;;3.20;;
36243;SDS011;22284;49.956;19.816;2023-02-01T14:47:38;5.00;;;2.80;;
36243;SDS011;22284;49.956;19.816;2023-02-01T14:50:43;7.70;;;3.30;;
36243;SDS011;22284;49.956;19.816;2023-02-01T14:53:47;10.50;;;3.70;;
36243;SDS011;22284;49.956;19.816;2023-02-01T14:56:51;6.50;;;3.40;;
36243;SDS011;22284;49.956;19.816;2023-02-01T14:59:58;8.30;;;3.70;;
36243;SDS011;22284;49.956;19.816;2023-02-01T15:09:35;8.20;;;4.00;;
36243;SDS011;22284;49.956;19.816;2023-02-01T15:12:40;7.20;;;3.80;;
36243;SDS011;22284;49.956;19.816;2023-02-01T15:15:45;7.50;;;4.00;;
36243;SDS011;22284;49.956;19.816;2023-02-01T15:19:07;9.00;;;3.90;;
36243;SDS011;22284;49.956;19.816;2023-02-01T15:22:13;9.90;;;4.90;;
36243;SDS011;22284;49.956;19.816;2023-02-01T15:25:20;10.50;;;4.50;;
36243;SDS011;22284;49.956;19.816;2023-02-01T15:28:38;13.10;;;5.40;;
36243;SDS011;22284;49.956;19.816;2023-02-01T15:31:47;11.00;;;5.10;;
36243;SDS011;22284;49.956;19.816;2023-02-01T15:34:51;6.70;;;4.00;;
36243;SDS011;22284;49.956;19.816;2023-02-01T15:41:29;9.10;;;4.70;;
36243;SDS011;22284;49.956;19.816;2023-02-01T15:44:41;12.50;;;4.60;;
36243;SDS011;22284;49.956;19.816;2023-02-01T15:47:47;7.80;;;4.40;;
36243;SDS011;22284;49.956;19.816;2023-02-01T15:50:55;11.60;;;5.20;;
36243;SDS011;22284;49.956;19.816;2023-02-01T15:53:58;11.30;;;5.40;;
36243;SDS011;22284;49.956;19.816;2023-02-01T15:57:08;10.50;;;5.70;;
36243;SDS011;22284;49.956;19.816;2023-02-01T16:00:28;11.30;;;5.40;;
36243;SDS011;22284;49.956;19.816;2023-02-01T16:03:36;15.00;;;5.50;;
36243;SDS011;22284;49.956;19.816;2023-02-01T16:09:57;12.50;;;5.60;;
36243;SDS011;22284;49.956;19.816;2023-02-01T16:13:10;13.70;;;5.80;;
36243;SDS011;22284;49.956;19.816;2023-02-01T16:16:15;13.80;;;6.40;;
36243;SDS011;22284;49.956;19.816;2023-02-01T16:19:17;11.90;;;5.20;;
36243;SDS011;22284;49.956;19.816;2023-02-01T16:22:22;12.00;;;5.50;;
36243;SDS011;22284;49.956;19.816;2023-02-01T16:28:55;12.40;;;5.70;;
36243;SDS011;22284;49.956;19.816;2023-02-01T16:32:34;13.40;;;6.20;;
36243;SDS011;22284;49.956;19.816;2023-02-01T16:36:09;13.80;;;6.00;;
36243;SDS011;22284;49.956;19.816;2023-02-01T16:39:26;13.10;;;5.80;;
36243;SDS011;22284;49.956;19.816;2023-02-01T16:42:37;15.50;;;6.70;;
36243;SDS011;22284;49.956;19.816;2023-02-01T16:46:13;15.30;;;6.70;;
36243;SDS011;22284;49.956;19.816;2023-02-01T16:49:36;15.90;;;7.40;;
36243;SDS011;22284;49.956;19.816;2023-02-01T16:52:58;11.20;;;5.20;;
36243;SDS011;22284;49.956;19.816;2023-02-01T16:56:00;14.00;;;6.50;;
36243;SDS011;22284;49.956;19.816;2023-02-01T16:59:06;13.30;;;6.10;;
36243;SDS011;22284;49.956;19.816;2023-02-01T17:02:15;14.30;;;5.90;;
36243;SDS011;22284;49.956;19.816;2023-02-01T17:05:28;16.50;;;7.00;;
36243;SDS011;22284;49.956;19.816;2023-02-01T17:08:51;15.70;;;6.90;;
36243;SDS011;22284;49.956;19.816;2023-02-01T17:12:05;18.40;;;7.20;;
36243;SDS011;22284;49.956;19.816;2023-02-01T17:15:15;15.10;;;6.30;;
36243;SDS011;22284;49.956;19.816;2023-02-01T17:18:16;13.80;;;5.90;;
36243;SDS011;22284;49.956;19.816;2023-02-01T17:21:19;15.20;;;6.20;;
36243;SDS011;22284;49.956;19.816;2023-02-01T17:24:22;18.50;;;6.20;;
36243;SDS011;22284;49.956;19.816;2023-02-01T17:27:53;15.80;;;6.40;;
36243;SDS011;22284;49.956;19.816;2023-02-01T17:31:05;13.40;;;6.00;;
36243;SDS011;22284;49.956;19.816;2023-02-01T17:34:10;18.70;;;6.70;;
36243;SDS011;22284;49.956;19.816;2023-02-01T17:40:34;13.90;;;5.80;;
36243;SDS011;22284;49.956;19.816;2023-02-01T17:43:36;16.00;;;5.80;;
36243;SDS011;22284;49.956;19.816;2023-02-01T17:46:38;17.70;;;5.60;;
36243;SDS011;22284;49.956;19.816;2023-02-01T17:49:49;15.70;;;5.90;;
36243;SDS011;22284;49.956;19.816;2023-02-01T17:52:58;11.60;;;5.10;;
36243;SDS011;22284;49.956;19.816;2023-02-01T17:56:08;17.60;;;5.50;;
36243;SDS011;22284;49.956;19.816;2023-02-01T18:03:05;12.80;;;5.10;;
36243;SDS011;22284;49.956;19.816;2023-02-01T18:06:13;16.10;;;5.20;;
36243;SDS011;22284;49.956;19.816;2023-02-01T18:09:17;15.20;;;5.50;;
36243;SDS011;22284;49.956;19.816;2023-02-01T18:12:20;12.30;;;5.30;;
36243;SDS011;22284;49.956;19.816;2023-02-01T18:18:37;17.90;;;6.80;;
36243;SDS011;22284;49.956;19.816;2023-02-01T18:21:40;18.70;;;6.80;;
36243;SDS011;22284;49.956;19.816;2023-02-01T18:24:42;17.40;;;6.70;;
36243;SDS011;22284;49.956;19.816;2023-02-01T18:27:45;18.10;;;7.00;;
36243;SDS011;22284;49.956;19.816;2023-02-01T18:30:50;18.40;;;7.50;;
36243;SDS011;22284;49.956;19.816;2023-02-01T18:33:53;14.70;;;6.30;;
36243;SDS011;22284;49.956;19.816;2023-02-01T18:36:59;14.70;;;6.60;;
36243;SDS011;22284;49.956;19.816;2023-02-01T18:40:02;12.60;;;4.80;;
36243;SDS011;22284;49.956;19.816;2023-02-01T18:43:09;12.40;;;5.50;;
36243;SDS011;22284;49.956;19.816;2023-02-01T18:46:12;13.10;;;5.10;;
36243;SDS011;22284;49.956;19.816;2023-02-01T18:49:18;12.50;;;5.00;;
36243;SDS011;22284;49.956;19.816;2023-02-01T18:52:20;12.70;;;5.50;;
36243;SDS011;22284;49.956;19.816;2023-02-01T18:55:22;11.10;;;5.40;;
36243;SDS011;22284;49.956;19.816;2023-02-01T18:58:25;12.60;;;5.00;;
36243;SDS011;22284;49.956;19.816;2023-02-01T19:04:42;13.50;;;5.10;;
36243;SDS011;22284;49.956;19.816;2023-02-01T19:07:44;10.20;;;5.10;;
36243;SDS011;22284;49.956;19.816;2023-02-01T19:10:46;13.00;;;5.30;;
36243;SDS011;22284;49.956;19.816;2023-02-01T19:13:49;15.20;;;7.70;;
36243;SDS011;22284;49.956;19.816;2023-02-01T19:16:55;12.10;;;5.40;;
36243;SDS011;22284;49.956;19.816;2023-02-01T19:20:09;14.20;;;6.00;;
36243;SDS011;22284;49.956;19.816;2023-02-01T19:23:22;15.80;;;6.90;;
36243;SDS011;22284;49.956;19.816;2023-02-01T19:26:24;15.20;;;7.00;;
36243;SDS011;22284;49.956;19.816;2023-02-01T19:29:25;17.60;;;7.60;;
36243;SDS011;22284;49.956;19.816;2023-02-01T19:32:42;17.30;;;7.00;;
36243;SDS011;22284;49.956;19.816;2023-02-01T19:36:09;17.30;;;8.20;;
36243;SDS011;22284;49.956;19.816;2023-02-01T19:39:14;18.90;;;8.00;;
36243;SDS011;22284;49.956;19.816;2023-02-01T19:42:19;19.70;;;7.20;;
36243;SDS011;22284;49.956;19.816;2023-02-01T19:45:24;17.40;;;7.90;;
36243;SDS011;22284;49.956;19.816;2023-02-01T19:51:50;12.10;;;5.40;;
36243;SDS011;22284;49.956;19.816;2023-02-01T19:54:52;13.80;;;4.90;;
36243;SDS011;22284;49.956;19.816;2023-02-01T19:57:54;9.40;;;4.20;;
36243;SDS011;22284;49.956;19.816;2023-02-01T20:01:05;10.20;;;4.90;;
36243;SDS011;22284;49.956;19.816;2023-02-01T20:04:11;13.20;;;4.90;;
36243;SDS011;22284;49.956;19.816;2023-02-01T20:07:13;13.00;;;5.40;;
36243;SDS011;22284;49.956;19.816;2023-02-01T20:10:15;12.80;;;5.00;;
36243;SDS011;22284;49.956;19.816;2023-02-01T20:13:17;12.00;;;5.20;;
36243;SDS011;22284;49.956;19.816;2023-02-01T20:16:19;11.70;;;5.90;;
36243;SDS011;22284;49.956;19.816;2023-02-01T20:19:22;15.30;;;6.70;;
36243;SDS011;22284;49.956;19.816;2023-02-01T20:22:24;15.30;;;6.70;;
36243;SDS011;22284;49.956;19.816;2023-02-01T20:25:35;16.60;;;6.90;;
36243;SDS011;22284;49.956;19.816;2023-02-01T20:28:38;19.60;;;6.70;;
36243;SDS011;22284;49.956;19.816;2023-02-01T20:31:40;12.00;;;6.10;;
36243;SDS011;22284;49.956;19.816;2023-02-01T20:34:42;11.70;;;5.50;;
36243;SDS011;22284;49.956;19.816;2023-02-01T20:37:52;13.30;;;4.80;;
36243;SDS011;22284;49.956;19.816;2023-02-01T20:41:03;13.50;;;5.50;;
36243;SDS011;22284;49.956;19.816;2023-02-01T20:44:06;9.60;;;4.40;;
36243;SDS011;22284;49.956;19.816;2023-02-01T20:47:10;9.50;;;4.20;;
36243;SDS011;22284;49.956;19.816;2023-02-01T20:50:12;12.30;;;4.30;;
36243;SDS011;22284;49.956;19.816;2023-02-01T20:53:14;13.30;;;4.70;;
36243;SDS011;22284;49.956;19.816;2023-02-01T20:56:25;10.20;;;4.30;;
36243;SDS011;22284;49.956;19.816;2023-02-01T20:59:30;13.40;;;4.10;;
36243;SDS011;22284;49.956;19.816;2023-02-01T21:02:32;9.40;;;4.10;;
36243;SDS011;22284;49.956;19.816;2023-02-01T21:05:48;8.30;;;3.30;;
36243;SDS011;22284;49.956;19.816;2023-02-01T21:08:51;11.20;;;4.10;;
36243;SDS011;22284;49.956;19.816;2023-02-01T21:11:53;11.70;;;3.90;;
36243;SDS011;22284;49.956;19.816;2023-02-01T21:14:55;13.00;;;4.70;;
36243;SDS011;22284;49.956;19.816;2023-02-01T21:17:56;8.40;;;3.60;;
36243;SDS011;22284;49.956;19.816;2023-02-01T21:21:12;9.30;;;3.90;;
36243;SDS011;22284;49.956;19.816;2023-02-01T21:24:15;8.40;;;3.70;;
36243;SDS011;22284;49.956;19.816;2023-02-01T21:27:16;8.70;;;3.50;;
36243;SDS011;22284;49.956;19.816;2023-02-01T21:30:18;8.50;;;3.80;;
36243;SDS011;22284;49.956;19.816;2023-02-01T21:33:20;9.80;;;4.10;;
36243;SDS011;22284;49.956;19.816;2023-02-01T21:36:25;12.30;;;4.20;;
36243;SDS011;22284;49.956;19.816;2023-02-01T21:39:31;8.70;;;4.10;;
36243;SDS011;22284;49.956;19.816;2023-02-01T21:42:32;10.50;;;3.90;;
36243;SDS011;22284;49.956;19.816;2023-02-01T21:45:39;9.30;;;3.90;;
36243;SDS011;22284;49.956;19.816;2023-02-01T21:48:41;10.20;;;3.70;;
36243;SDS011;22284;49.956;19.816;2023-02-01T21:51:43;7.90;;;3.30;;
36243;SDS011;22284;49.956;19.816;2023-02-01T21:54:52;9.70;;;4.00;;
36243;SDS011;22284;49.956;19.816;2023-02-01T21:58:04;10.30;;;3.70;;
36243;SDS011;22284;49.956;19.816;2023-02-01T22:01:17;8.90;;;3.90;;
36243;SDS011;22284;49.956;19.816;2023-02-01T22:04:19;9.60;;;3.50;;
36243;SDS011;22284;49.956;19.816;2023-02-01T22:07:21;7.40;;;3.40;;
36243;SDS011;22284;49.956;19.816;2023-02-01T22:10:23;7.20;;;3.50;;
36243;SDS011;22284;49.956;19.816;2023-02-01T22:13:25;8.60;;;3.40;;
36243;SDS011;22284;49.956;19.816;2023-02-01T22:16:37;10.70;;;3.70;;
36243;SDS011;22284;49.956;19.816;2023-02-01T22:19:39;8.70;;;3.00;;
36243;SDS011;22284;49.956;19.816;2023-02-01T22:22:42;10.30;;;3.90;;
36243;SDS011;22284;49.956;19.816;2023-02-01T22:25:51;11.70;;;4.50;;
36243;SDS011;22284;49.956;19.816;2023-02-01T22:28:53;9.80;;;3.90;;
36243;SDS011;22284;49.956;19.816;2023-02-01T22:31:55;7.60;;;4.10;;
36243;SDS011;22284;49.956;19.816;2023-02-01T22:34:57;9.70;;;4.50;;
36243;SDS011;22284;49.956;19.816;2023-02-01T22:37:59;10.60;;;4.00;;
36243;SDS011;22284;49.956;19.816;2023-02-01T22:41:02;11.20;;;4.40;;
36243;SDS011;22284;49.956;19.816;2023-02-01T22:44:05;10.40;;;4.50;;
36243;SDS011;22284;49.956;19.816;2023-02-01T22:47:13;11.90;;;4.70;;
36243;SDS011;22284;49.956;19.816;2023-02-01T22:50:15;11.70;;;5.10;;
36243;SDS011;22284;49.956;19.816;2023-02-01T22:53:17;11.10;;;4.70;;
36243;SDS011;22284;49.956;19.816;2023-02-01T22:56:20;8.90;;;4.00;;
36243;SDS011;22284;49.956;19.816;2023-02-01T22:59:32;9.00;;;3.40;;
36243;SDS011;22284;49.956;19.816;2023-02-01T23:02:43;8.00;;;3.50;;
36243;SDS011;22284;49.956;19.816;2023-02-01T23:05:45;5.10;;;2.80;;
36243;SDS011;22284;49.956;19.816;2023-02-01T23:08:59;6.20;;;2.60;;
36243;SDS011;22284;49.956;19.816;2023-02-01T23:12:05;10.70;;;2.70;;
36243;SDS011;22284;49.956;19.816;2023-02-01T23:15:07;6.60;;;3.10;;
36243;SDS011;22284;49.956;19.816;2023-02-01T23:18:12;4.90;;;2.90;;
36243;SDS011;22284;49.956;19.816;2023-02-01T23:21:16;8.80;;;3.40;;
36243;SDS011;22284;49.956;19.816;2023-02-01T23:24:19;7.30;;;2.90;;
36243;SDS011;22284;49.956;19.816;2023-02-01T23:27:21;5.50;;;2.70;;
36243;SDS011;22284;49.956;19.816;2023-02-01T23:30:30;6.50;;;3.20;;
36243;SDS011;22284;49.956;19.816;2023-02-01T23:33:48;7.00;;;3.10;;
36243;SDS011;22284;49.956;19.816;2023-02-01T23:36:54;8.50;;;3.30;;
36243;SDS011;22284;49.956;19.816;2023-02-01T23:40:05;9.30;;;3.60;;
36243;SDS011;22284;49.956;19.816;2023-02-01T23:43:08;8.50;;;3.50;;
36243;SDS011;22284;49.956;19.816;2023-02-01T23:46:36;7.80;;;3.50;;
36243;SDS011;22284;49.956;19.816;2023-02-01T23:49:47;6.20;;;3.10;;
36243;SDS011;22284;49.956;19.816;2023-02-01T23:52:49;4.60;;;3.00;;
36243;SDS011;22284;49.956;19.816;2023-02-01T23:55:58;6.80;;;3.30;;
36243;SDS011;22284;49.956;19.816;2023-02-01T23:59:10;6.10;;;3.10;;
